createdAt,value
2022-08-28T00:00:40.327Z,100.00
2022-08-28T00:03:09.595Z,100.00
2022-08-28T00:05:39.762Z,100.00
2022-08-28T00:08:09.886Z,100.00
2022-08-28T00:10:40.174Z,100.00
2022-08-28T00:13:18.520Z,100.00
2022-08-28T00:15:52.762Z,100.00
2022-08-28T00:18:21.070Z,100.00
2022-08-28T00:20:50.234Z,100.00
2022-08-28T00:23:19.216Z,100.00
2022-08-28T00:25:46.232Z,100.00
2022-08-28T00:28:23.637Z,100.00
2022-08-28T00:30:59.089Z,100.00
2022-08-28T00:33:35.011Z,100.00
2022-08-28T00:36:04.972Z,100.00
2022-08-28T00:38:32.121Z,100.00
2022-08-28T00:41:03.645Z,100.00
2022-08-28T00:43:41.208Z,100.00
2022-08-28T00:46:21.757Z,100.00
2022-08-28T00:48:50.096Z,100.00
2022-08-28T00:51:39.565Z,100.00
2022-08-28T00:54:08.434Z,100.00
2022-08-28T00:56:40.803Z,100.00
2022-08-28T00:59:20.631Z,100.00
2022-08-28T01:01:49.676Z,100.00
2022-08-28T01:04:23.560Z,100.00
2022-08-28T01:06:56.940Z,100.00
2022-08-28T01:09:30.905Z,100.00
2022-08-28T01:12:17.951Z,100.00
2022-08-28T01:14:50.537Z,100.00
2022-08-28T01:17:24.818Z,100.00
2022-08-28T01:20:02.648Z,100.00
2022-08-28T01:23:46.874Z,100.00
2022-08-28T01:26:14.462Z,100.00
2022-08-28T01:28:41.866Z,100.00
2022-08-28T01:31:16.957Z,100.00
2022-08-28T01:33:47.615Z,100.00
2022-08-28T01:36:17.145Z,100.00
2022-08-28T01:38:56.253Z,100.00
2022-08-28T01:41:23.333Z,100.00
2022-08-28T01:43:50.590Z,100.00
2022-08-28T01:46:18.257Z,100.00
2022-08-28T01:48:45.881Z,100.00
2022-08-28T01:51:14.601Z,100.00
2022-08-28T01:53:45.149Z,100.00
2022-08-28T01:56:17.865Z,100.00
2022-08-28T01:58:48.108Z,100.00
2022-08-28T02:01:22.328Z,100.00
2022-08-28T02:03:53.100Z,100.00
2022-08-28T02:06:20.788Z,100.00
2022-08-28T02:08:49.988Z,100.00
2022-08-28T02:11:17.383Z,100.00
2022-08-28T02:13:44.480Z,100.00
2022-08-28T02:16:11.754Z,100.00
2022-08-28T02:18:39.558Z,100.00
2022-08-28T02:21:09.015Z,100.00
2022-08-28T02:23:41.770Z,100.00
2022-08-28T02:26:12.234Z,100.00
2022-08-28T02:28:39.460Z,100.00
2022-08-28T02:31:09.402Z,100.00
2022-08-28T02:33:41.207Z,100.00
2022-08-28T02:36:12.965Z,100.00
2022-08-28T02:38:40.357Z,100.00
2022-08-28T02:41:08.869Z,100.00
2022-08-28T02:43:36.256Z,100.00
2022-08-28T02:46:06.063Z,100.00
2022-08-28T02:48:38.308Z,100.00
2022-08-28T02:51:13.670Z,100.00
2022-08-28T02:53:42.199Z,100.00
2022-08-28T02:56:10.317Z,100.00
2022-08-28T02:58:39.792Z,100.00
2022-08-28T03:01:12.168Z,100.00
2022-08-28T03:03:41.880Z,100.00
2022-08-28T03:06:12.668Z,100.00
2022-08-28T03:08:42.926Z,100.00
2022-08-28T03:11:12.062Z,100.00
2022-08-28T03:13:39.392Z,100.00
2022-08-28T03:16:07.171Z,100.00
2022-08-28T03:18:34.331Z,100.00
2022-08-28T03:21:01.885Z,100.00
2022-08-28T03:23:30.409Z,100.00
2022-08-28T03:26:10.892Z,100.00
2022-08-28T03:28:45.952Z,100.00
2022-08-28T03:31:20.108Z,100.00
2022-08-28T03:33:49.376Z,100.00
2022-08-28T03:36:24.498Z,100.00
2022-08-28T03:38:56.541Z,100.00
2022-08-28T03:41:29.425Z,100.00
2022-08-28T03:44:00.285Z,100.00
2022-08-28T03:46:33.025Z,100.00
2022-08-28T03:49:04.796Z,100.00
2022-08-28T03:51:35.028Z,100.00
2022-08-28T03:54:05.695Z,100.00
2022-08-28T03:56:33.481Z,100.00
2022-08-28T03:59:05.322Z,100.00
2022-08-28T04:01:33.638Z,100.00
2022-08-28T04:04:00.988Z,100.00
2022-08-28T04:06:28.393Z,100.00
2022-08-28T04:08:59.979Z,100.00
2022-08-28T04:11:27.457Z,100.00
2022-08-28T04:13:54.588Z,100.00
2022-08-28T04:16:21.775Z,100.00
2022-08-28T04:18:50.602Z,100.00
2022-08-28T04:21:26.094Z,100.00
2022-08-28T04:23:55.313Z,100.00
2022-08-28T04:26:27.117Z,100.00
2022-08-28T04:28:56.202Z,100.00
2022-08-28T04:31:32.028Z,100.00
2022-08-28T04:34:07.053Z,100.00
2022-08-28T04:36:35.535Z,100.00
2022-08-28T04:39:08.865Z,100.00
2022-08-28T04:41:37.630Z,100.00
2022-08-28T04:44:06.836Z,100.00
2022-08-28T04:46:34.372Z,100.00
2022-08-28T04:49:01.811Z,100.00
2022-08-28T04:51:29.715Z,100.00
2022-08-28T04:53:59.029Z,100.00
2022-08-28T04:56:27.083Z,100.00
2022-08-28T04:58:54.869Z,100.00
2022-08-28T05:01:25.174Z,100.00
2022-08-28T05:04:02.338Z,100.00
2022-08-28T05:06:33.148Z,100.00
2022-08-28T05:09:04.221Z,100.00
2022-08-28T05:11:34.395Z,100.00
2022-08-28T05:14:15.893Z,100.00
2022-08-28T05:16:53.104Z,100.00
2022-08-28T05:19:21.707Z,100.00
2022-08-28T05:21:49.595Z,100.00
2022-08-28T05:24:17.640Z,100.00
2022-08-28T05:26:48.288Z,100.00
2022-08-28T05:29:17.900Z,100.00
2022-08-28T05:31:46.408Z,100.00
2022-08-28T05:34:15.070Z,100.00
2022-08-28T05:36:42.530Z,100.00
2022-08-28T05:39:13.109Z,100.00
2022-08-28T05:41:44.604Z,100.00
2022-08-28T05:44:17.077Z,100.00
2022-08-28T05:46:48.384Z,100.00
2022-08-28T05:49:19.669Z,100.00
2022-08-28T05:51:49.045Z,100.00
2022-08-28T05:54:17.767Z,100.00
2022-08-28T05:56:46.858Z,100.00
2022-08-28T05:59:16.067Z,100.00
2022-08-28T06:01:49.514Z,100.00
2022-08-28T06:04:25.813Z,100.00
2022-08-28T06:06:53.608Z,100.00
2022-08-28T06:09:29.468Z,100.00
2022-08-28T06:12:02.395Z,100.00
2022-08-28T06:14:31.694Z,100.00
2022-08-28T06:17:01.231Z,100.00
2022-08-28T06:19:37.221Z,100.00
2022-08-28T06:22:07.822Z,100.00
2022-08-28T06:24:36.075Z,100.00
2022-08-28T06:27:03.290Z,100.00
2022-08-28T06:29:31.040Z,100.00
2022-08-28T06:32:04.884Z,100.00
2022-08-28T06:34:32.426Z,100.00
2022-08-28T06:37:00.697Z,100.00
2022-08-28T06:39:27.898Z,100.00
2022-08-28T06:41:55.120Z,100.00
2022-08-28T06:44:23.502Z,100.00
2022-08-28T06:46:54.576Z,100.00
2022-08-28T06:49:22.800Z,100.00
2022-08-28T06:51:50.121Z,100.00
2022-08-28T06:54:22.138Z,100.00
2022-08-28T06:56:52.425Z,100.00
2022-08-28T06:59:20.330Z,100.00
2022-08-28T07:01:47.416Z,100.00
2022-08-28T07:04:14.787Z,100.00
2022-08-28T07:06:53.769Z,100.00
2022-08-28T07:09:22.246Z,100.00
2022-08-28T07:11:49.410Z,100.00
2022-08-28T07:14:16.994Z,100.00
2022-08-28T07:16:44.630Z,100.00
2022-08-28T07:19:13.705Z,100.00
2022-08-28T07:21:45.894Z,100.00
2022-08-28T07:24:16.692Z,100.00
2022-08-28T07:26:47.272Z,100.00
2022-08-28T07:29:16.328Z,100.00
2022-08-28T07:31:53.200Z,100.00
2022-08-28T07:34:27.063Z,100.00
2022-08-28T07:36:54.874Z,100.00
2022-08-28T07:39:22.147Z,100.00
2022-08-28T07:41:50.354Z,100.00
2022-08-28T07:44:36.595Z,100.00
2022-08-28T07:47:06.909Z,100.00
2022-08-28T07:49:36.513Z,100.00
2022-08-28T07:52:07.447Z,100.00
2022-08-28T07:54:36.295Z,100.00
2022-08-28T07:57:10.148Z,100.00
2022-08-28T07:59:38.771Z,100.00
2022-08-28T08:02:07.414Z,100.00
2022-08-28T08:04:35.281Z,100.00
2022-08-28T08:07:04.742Z,100.00
2022-08-28T08:09:37.506Z,100.00
2022-08-28T08:12:06.097Z,100.00
2022-08-28T08:14:33.346Z,100.00
2022-08-28T08:17:05.290Z,100.00
2022-08-28T08:19:35.416Z,100.00
2022-08-28T08:22:02.614Z,100.00
2022-08-28T08:24:30.524Z,100.00
2022-08-28T08:27:02.381Z,100.00
2022-08-28T08:29:38.329Z,100.00
2022-08-28T08:32:11.649Z,100.00
2022-08-28T08:34:46.084Z,100.00
2022-08-28T08:37:14.730Z,100.00
2022-08-28T08:39:43.664Z,100.00
2022-08-28T08:42:29.373Z,100.00
2022-08-28T08:45:04.261Z,100.00
2022-08-28T08:47:48.725Z,100.00
2022-08-28T08:50:29.427Z,100.00
2022-08-28T08:54:01.001Z,100.00
2022-08-28T08:56:35.022Z,100.00
2022-08-28T08:59:10.784Z,100.00
2022-08-28T09:02:14.941Z,100.00
2022-08-28T09:05:01.667Z,100.00
2022-08-28T09:07:56.841Z,100.00
2022-08-28T09:10:41.337Z,100.00
2022-08-28T09:13:34.128Z,100.00
2022-08-28T09:16:20.387Z,100.00
2022-08-28T09:18:50.769Z,100.00
2022-08-28T09:21:35.329Z,100.00
2022-08-28T09:24:17.336Z,100.00
2022-08-28T09:27:36.001Z,100.00
2022-08-28T09:30:11.539Z,100.00
2022-08-28T09:33:01.111Z,100.00
2022-08-28T09:35:35.055Z,100.00
2022-08-28T09:38:27.878Z,100.00
2022-08-28T09:41:30.866Z,100.00
2022-08-28T09:43:58.327Z,100.00
2022-08-28T09:46:32.728Z,100.00
2022-08-28T09:49:15.381Z,100.00
2022-08-28T09:51:42.478Z,100.00
2022-08-28T09:54:30.865Z,100.00
2022-08-28T09:56:59.216Z,100.00
2022-08-28T09:59:29.905Z,100.00
2022-08-28T10:02:40.758Z,100.00
2022-08-28T10:05:29.315Z,100.00
2022-08-28T10:08:23.369Z,100.00
2022-08-28T10:11:02.903Z,100.00
2022-08-28T10:13:55.415Z,100.00
2022-08-28T10:16:56.361Z,100.00
2022-08-28T10:19:39.451Z,100.00
2022-08-28T10:22:38.862Z,100.00
2022-08-28T10:25:56.422Z,100.00
2022-08-28T10:29:06.056Z,100.00
2022-08-28T10:31:33.068Z,100.00
2022-08-28T10:34:57.717Z,100.00
2022-08-28T10:37:34.716Z,100.00
2022-08-28T10:40:26.583Z,100.00
2022-08-28T10:43:16.441Z,100.00
2022-08-28T10:45:43.860Z,100.00
2022-08-28T10:48:27.814Z,100.00
2022-08-28T10:51:08.721Z,100.00
2022-08-28T10:53:50.178Z,100.00
2022-08-28T10:56:28.780Z,100.00
2022-08-28T10:58:59.558Z,100.00
2022-08-28T11:01:35.896Z,100.00
2022-08-28T11:04:25.087Z,100.00
2022-08-28T11:07:30.016Z,100.00
2022-08-28T11:10:47.063Z,100.00
2022-08-28T11:14:03.452Z,100.00
2022-08-28T11:16:31.258Z,100.00
2022-08-28T11:19:09.916Z,100.00
2022-08-28T11:22:34.395Z,100.00
2022-08-28T11:25:26.446Z,100.00
2022-08-28T11:28:22.776Z,100.00
2022-08-28T11:31:10.223Z,100.00
2022-08-28T11:33:55.598Z,100.00
2022-08-28T11:36:22.876Z,100.00
2022-08-28T11:38:53.348Z,100.00
2022-08-28T11:41:39.151Z,100.00
2022-08-28T11:44:14.903Z,100.00
2022-08-28T11:46:57.190Z,100.00
2022-08-28T11:49:24.635Z,100.00
2022-08-28T11:52:59.360Z,100.00
2022-08-28T11:55:50.273Z,100.00
2022-08-28T11:58:37.762Z,100.00
2022-08-28T12:01:14.300Z,100.00
2022-08-28T12:03:56.023Z,100.00
2022-08-28T12:07:11.666Z,100.00
2022-08-28T12:09:46.899Z,100.00
2022-08-28T12:12:46.220Z,100.00
2022-08-28T12:15:34.147Z,100.00
2022-08-28T12:18:36.315Z,100.00
2022-08-28T12:21:16.214Z,100.00
2022-08-28T12:24:22.933Z,100.00
2022-08-28T12:26:57.240Z,100.00
2022-08-28T12:29:36.358Z,100.00
2022-08-28T12:32:53.462Z,100.00
2022-08-28T12:35:30.192Z,100.00
2022-08-28T12:37:57.427Z,100.00
2022-08-28T12:40:41.504Z,100.00
2022-08-28T12:43:15.463Z,100.00
2022-08-28T12:46:07.055Z,100.00
2022-08-28T12:48:53.641Z,100.00
2022-08-28T12:51:27.714Z,100.00
2022-08-28T12:54:06.871Z,100.00
2022-08-28T12:56:38.450Z,100.00
2022-08-28T12:59:39.853Z,100.00
2022-08-28T13:02:33.670Z,100.00
2022-08-28T13:05:41.305Z,100.00
2022-08-28T13:08:13.342Z,100.00
2022-08-28T13:10:51.949Z,100.00
2022-08-28T13:13:28.085Z,100.00
2022-08-28T13:16:01.563Z,100.00
2022-08-28T13:18:42.214Z,100.00
2022-08-28T13:21:32.785Z,100.00
2022-08-28T13:24:37.576Z,100.00
2022-08-28T13:27:12.655Z,100.00
2022-08-28T13:30:14.605Z,94.77
2022-08-28T13:32:56.183Z,96.87
2022-08-28T13:35:25.840Z,99.57
2022-08-28T13:38:03.634Z,100.00
2022-08-28T13:41:03.111Z,97.06
2022-08-28T13:43:47.227Z,95.77
2022-08-28T13:46:14.467Z,91.60
2022-08-28T13:48:41.550Z,91.15
2022-08-28T13:51:20.947Z,92.31
2022-08-28T13:53:49.848Z,92.55
2022-08-28T13:56:17.758Z,92.83
2022-08-28T13:58:44.925Z,91.22
2022-08-28T14:01:44.605Z,93.89
2022-08-28T14:04:13.186Z,92.28
2022-08-28T14:06:44.505Z,92.35
2022-08-28T14:09:17.491Z,86.62
2022-08-28T14:11:48.066Z,87.86
2022-08-28T14:14:15.672Z,86.65
2022-08-28T14:16:45.042Z,82.85
2022-08-28T14:19:12.951Z,81.92
2022-08-28T14:21:41.701Z,79.49
2022-08-28T14:24:09.456Z,81.90
2022-08-28T14:26:37.945Z,81.65
2022-08-28T14:29:10.407Z,80.80
2022-08-28T14:31:41.094Z,80.26
2022-08-28T14:34:13.505Z,77.29
2022-08-28T14:36:42.288Z,77.14
2022-08-28T14:39:13.655Z,78.30
2022-08-28T14:41:47.244Z,77.50
2022-08-28T14:44:15.823Z,76.64
2022-08-28T14:46:49.594Z,74.14
2022-08-28T14:49:19.952Z,72.28
2022-08-28T14:51:50.193Z,73.20
2022-08-28T14:54:23.547Z,72.10
2022-08-28T14:56:53.733Z,72.99
2022-08-28T14:59:29.055Z,68.53
2022-08-28T15:02:00.269Z,67.58
2022-08-28T15:04:37.798Z,67.49
2022-08-28T15:07:10.996Z,67.29
2022-08-28T15:09:42.714Z,63.79
2022-08-28T15:12:16.685Z,62.60
2022-08-28T15:14:44.323Z,59.23
2022-08-28T15:17:23.325Z,58.38
2022-08-28T15:20:01.115Z,57.55
2022-08-28T15:22:28.215Z,57.86
2022-08-28T15:24:55.707Z,59.51
2022-08-28T15:27:23.462Z,61.59
2022-08-28T15:29:50.897Z,59.77
2022-08-28T15:32:18.076Z,60.59
2022-08-28T15:34:46.257Z,58.98
2022-08-28T15:37:13.624Z,58.01
2022-08-28T15:39:59.454Z,58.36
2022-08-28T15:42:26.901Z,58.47
2022-08-28T15:44:57.138Z,56.87
2022-08-28T15:47:25.360Z,58.33
2022-08-28T15:49:57.164Z,57.82
2022-08-28T15:52:25.265Z,56.62
2022-08-28T15:54:53.559Z,55.62
2022-08-28T15:57:20.627Z,56.26
2022-08-28T15:59:48.010Z,58.02
2022-08-28T16:02:24.624Z,61.16
2022-08-28T16:04:54.443Z,66.62
2022-08-28T16:07:24.869Z,70.57
2022-08-28T16:09:53.821Z,70.43
2022-08-28T16:12:21.876Z,72.09
2022-08-28T16:14:50.521Z,72.98
2022-08-28T16:17:17.852Z,74.98
2022-08-28T16:19:45.102Z,75.85
2022-08-28T16:22:17.283Z,75.75
2022-08-28T16:24:46.560Z,70.81
2022-08-28T16:27:15.897Z,70.86
2022-08-28T16:29:46.034Z,71.23
2022-08-28T16:32:16.646Z,70.21
2022-08-28T16:34:44.788Z,71.98
2022-08-28T16:37:13.079Z,70.76
2022-08-28T16:39:43.087Z,70.25
2022-08-28T16:42:14.392Z,69.66
2022-08-28T16:44:41.612Z,71.48
2022-08-28T16:47:08.681Z,72.84
2022-08-28T16:49:35.888Z,72.76
2022-08-28T16:52:03.527Z,73.00
2022-08-28T16:54:30.689Z,71.89
2022-08-28T16:56:58.088Z,72.51
2022-08-28T16:59:25.498Z,75.53
2022-08-28T17:01:53.705Z,71.48
2022-08-28T17:04:22.510Z,71.55
2022-08-28T17:06:49.622Z,71.27
2022-08-28T17:09:16.662Z,71.79
2022-08-28T17:11:51.648Z,70.92
2022-08-28T17:14:21.956Z,71.21
2022-08-28T17:16:51.026Z,70.35
2022-08-28T17:19:20.972Z,72.60
2022-08-28T17:22:06.785Z,77.64
2022-08-28T17:24:33.964Z,75.96
2022-08-28T17:27:05.406Z,77.15
2022-08-28T17:29:35.094Z,74.90
2022-08-28T17:32:02.569Z,80.20
2022-08-28T17:34:30.546Z,77.93
2022-08-28T17:36:57.971Z,82.17
2022-08-28T17:39:25.871Z,84.51
2022-08-28T17:41:52.923Z,84.11
2022-08-28T17:44:20.179Z,87.64
2022-08-28T17:46:47.273Z,91.04
2022-08-28T17:49:14.305Z,94.16
2022-08-28T17:51:42.477Z,95.26
2022-08-28T17:54:21.520Z,96.97
2022-08-28T17:56:49.661Z,100.00
2022-08-28T17:59:19.508Z,100.00
2022-08-28T18:01:47.792Z,100.00
2022-08-28T18:04:23.884Z,100.00
2022-08-28T18:06:54.890Z,100.00
2022-08-28T18:09:24.007Z,100.00
2022-08-28T18:11:53.288Z,100.00
2022-08-28T18:14:21.078Z,100.00
2022-08-28T18:16:48.201Z,100.00
2022-08-28T18:19:16.530Z,100.00
2022-08-28T18:21:44.248Z,100.00
2022-08-28T18:24:13.132Z,100.00
2022-08-28T18:26:42.921Z,100.00
2022-08-28T18:29:11.115Z,100.00
2022-08-28T18:31:39.034Z,100.00
2022-08-28T18:34:06.257Z,100.00
2022-08-28T18:36:33.469Z,100.00
2022-08-28T18:39:00.660Z,100.00
2022-08-28T18:41:43.502Z,100.00
2022-08-28T18:44:15.661Z,100.00
2022-08-28T18:46:44.920Z,100.00
2022-08-28T18:49:13.082Z,100.00
2022-08-28T18:51:43.947Z,100.00
2022-08-28T18:54:18.125Z,100.00
2022-08-28T18:56:51.335Z,100.00
2022-08-28T18:59:19.509Z,100.00
2022-08-28T19:01:46.705Z,100.00
2022-08-28T19:04:13.917Z,100.00
2022-08-28T19:06:42.042Z,100.00
2022-08-28T19:09:11.697Z,100.00
2022-08-28T19:11:47.812Z,100.00
2022-08-28T19:14:14.857Z,100.00
2022-08-28T19:16:41.935Z,100.00
2022-08-28T19:19:09.148Z,100.00
2022-08-28T19:21:37.220Z,100.00
2022-08-28T19:24:05.499Z,100.00
2022-08-28T19:26:32.565Z,98.94
2022-08-28T19:29:00.787Z,99.04
2022-08-28T19:31:28.227Z,94.72
2022-08-28T19:33:56.231Z,96.31
2022-08-28T19:36:27.117Z,94.62
2022-08-28T19:38:54.256Z,92.84
2022-08-28T19:41:22.893Z,93.56
2022-08-28T19:43:50.407Z,92.44
2022-08-28T19:46:20.431Z,94.00
2022-08-28T19:48:53.558Z,93.46
2022-08-28T19:51:24.148Z,95.73
2022-08-28T19:53:58.891Z,93.58
2022-08-28T19:56:33.352Z,92.83
2022-08-28T19:59:04.480Z,90.96
2022-08-28T20:01:38.783Z,90.99
2022-08-28T20:04:09.916Z,91.83
2022-08-28T20:06:37.603Z,91.46
2022-08-28T20:09:10.647Z,94.39
2022-08-28T20:11:42.340Z,93.00
2022-08-28T20:14:09.744Z,91.88
2022-08-28T20:16:42.518Z,94.90
2022-08-28T20:19:12.810Z,96.74
2022-08-28T20:21:44.363Z,95.93
2022-08-28T20:24:20.554Z,96.54
2022-08-28T20:26:50.046Z,94.92
2022-08-28T20:29:18.254Z,95.64
2022-08-28T20:31:48.827Z,95.60
2022-08-28T20:34:20.242Z,95.96
2022-08-28T20:45:04.813Z,95.57
2022-08-28T20:47:31.854Z,94.54
2022-08-28T20:49:58.851Z,95.30
2022-08-28T20:52:26.835Z,96.10
2022-08-28T20:54:54.103Z,95.12
2022-08-28T20:57:22.909Z,97.49
2022-08-28T20:59:50.537Z,100.00
2022-08-28T21:02:24.576Z,100.00
2022-08-28T21:04:53.865Z,100.00
2022-08-28T21:07:24.862Z,100.00
2022-08-28T21:10:06.950Z,100.00
2022-08-28T21:12:38.623Z,100.00
2022-08-28T21:15:11.413Z,100.00
2022-08-28T21:17:41.366Z,100.00
2022-08-28T21:20:14.814Z,100.00
2022-08-28T21:22:43.426Z,100.00
2022-08-28T21:25:12.591Z,100.00
2022-08-28T21:27:40.527Z,100.00
2022-08-28T21:30:11.294Z,100.00
2022-08-28T21:32:39.081Z,100.00
2022-08-28T21:35:12.219Z,100.00
2022-08-28T21:37:41.845Z,100.00
2022-08-28T21:40:14.537Z,100.00
2022-08-28T21:42:42.678Z,100.00
2022-08-28T21:45:12.421Z,100.00
2022-08-28T21:47:41.536Z,100.00
2022-08-28T21:50:10.922Z,100.00
2022-08-28T21:52:39.306Z,100.00
2022-08-28T21:55:16.023Z,100.00
2022-08-28T21:57:44.703Z,100.00
2022-08-28T22:00:23.665Z,100.00
2022-08-28T22:02:50.858Z,100.00
2022-08-28T22:05:18.550Z,100.00
2022-08-28T22:07:45.693Z,100.00
2022-08-28T22:10:12.841Z,100.00
2022-08-28T22:12:39.981Z,100.00
2022-08-28T22:15:07.626Z,100.00
2022-08-28T22:17:34.720Z,100.00
2022-08-28T22:20:02.311Z,100.00
2022-08-28T22:22:48.069Z,100.00
2022-08-28T22:25:15.111Z,100.00
2022-08-28T22:27:42.226Z,100.00
2022-08-28T22:30:10.336Z,100.00
2022-08-28T22:32:37.357Z,100.00
2022-08-28T22:35:05.264Z,100.00
2022-08-28T22:37:32.539Z,100.00
2022-08-28T22:39:59.699Z,100.00
2022-08-28T22:42:26.879Z,100.00
2022-08-28T22:44:53.871Z,100.00
2022-08-28T22:47:21.731Z,100.00
2022-08-28T22:49:49.882Z,100.00
2022-08-28T22:52:18.034Z,100.00
2022-08-28T22:54:45.094Z,100.00
2022-08-28T22:57:12.177Z,100.00
2022-08-28T22:59:39.329Z,100.00
2022-08-28T23:02:06.434Z,100.00
2022-08-28T23:04:34.440Z,100.00
2022-08-28T23:07:01.425Z,100.00
2022-08-28T23:09:28.488Z,100.00
2022-08-28T23:11:55.512Z,100.00
2022-08-28T23:14:27.403Z,100.00
2022-08-28T23:16:56.072Z,100.00
2022-08-28T23:19:23.489Z,100.00
2022-08-28T23:21:51.332Z,100.00
2022-08-28T23:24:18.680Z,100.00
2022-08-28T23:26:46.321Z,100.00
2022-08-28T23:29:15.012Z,100.00
2022-08-28T23:31:42.513Z,100.00
2022-08-28T23:34:10.115Z,100.00
2022-08-28T23:36:39.335Z,100.00
2022-08-28T23:39:06.958Z,100.00
2022-08-28T23:41:34.899Z,100.00
2022-08-28T23:44:08.304Z,100.00
2022-08-28T23:46:41.704Z,100.00
2022-08-28T23:49:11.582Z,100.00
2022-08-28T23:51:41.170Z,100.00
2022-08-28T23:54:10.590Z,100.00
2022-08-28T23:56:38.421Z,100.00
2022-08-28T23:59:06.768Z,100.00
